createdAt,value
2018-12-23T00:05:39.629Z,18.21
2018-12-23T00:11:34.545Z,13.79
2018-12-23T00:17:29.594Z,15.37
2018-12-23T00:23:24.574Z,20.75
2018-12-23T00:29:19.542Z,16.42
2018-12-23T00:35:20.166Z,16.02
2018-12-23T00:41:09.542Z,17.17
2018-12-23T00:47:04.554Z,22
2018-12-23T00:52:59.575Z,17.97
2018-12-23T00:58:54.561Z,48.65
2018-12-23T01:04:49.572Z,22.01
2018-12-23T01:10:44.566Z,23.59
2018-12-23T01:16:39.568Z,17.64
2018-12-23T01:22:34.571Z,14.11
2018-12-23T01:28:29.568Z,24.28
2018-12-23T01:34:24.578Z,14.64
2018-12-23T01:40:19.583Z,17.15
2018-12-23T01:46:14.550Z,17.85
2018-12-23T01:52:09.580Z,22.19
2018-12-23T01:58:04.570Z,16.53
2018-12-23T02:03:59.569Z,17.82
2018-12-23T02:09:54.580Z,9.76
2018-12-23T02:15:49.611Z,16.29
2018-12-23T02:21:44.584Z,12.2
2018-12-23T02:27:39.593Z,25.21
2018-12-23T02:33:34.613Z,16.82
2018-12-23T02:39:29.639Z,19.36
2018-12-23T02:45:24.650Z,20.92
2018-12-23T02:51:19.582Z,16.28
2018-12-23T02:57:14.601Z,19.31
2018-12-23T03:03:09.574Z,18.47
2018-12-23T03:09:04.590Z,10.31
2018-12-23T03:14:59.591Z,10.57
2018-12-23T03:20:54.586Z,5.84
2018-12-23T03:26:49.575Z,6.67
2018-12-23T03:32:44.588Z,11.07
2018-12-23T03:38:39.601Z,9.76
2018-12-23T03:44:34.586Z,9.62
2018-12-23T03:50:29.603Z,11.08
2018-12-23T03:56:24.600Z,8.2
2018-12-23T04:02:19.605Z,6.32
2018-12-23T04:08:14.749Z,6.4
2018-12-23T04:14:09.597Z,4.85
2018-12-23T04:20:04.628Z,8.96
2018-12-23T04:25:59.611Z,17.4
2018-12-23T04:31:54.661Z,16.69
2018-12-23T04:37:49.617Z,8.29
2018-12-23T04:43:44.626Z,7.46
2018-12-23T04:49:39.627Z,5.19
2018-12-23T04:55:34.617Z,8.43
2018-12-23T05:01:29.593Z,31.74
2018-12-23T05:07:24.611Z,13.64
2018-12-23T05:13:19.605Z,7.46
2018-12-23T05:19:14.623Z,8.85
2018-12-23T05:25:09.614Z,8.79
2018-12-23T05:31:04.612Z,10.83
2018-12-23T05:36:59.606Z,8.55
2018-12-23T05:42:54.619Z,4.11
2018-12-23T05:48:49.627Z,6.41
2018-12-23T05:54:44.630Z,5.7
2018-12-23T06:00:39.666Z,7.35
2018-12-23T06:06:34.644Z,10.03
2018-12-23T06:12:29.638Z,9.79
2018-12-23T06:18:24.603Z,9.9
2018-12-23T06:24:19.616Z,11.48
2018-12-23T06:30:14.618Z,5.94
2018-12-23T06:36:09.602Z,9.23
2018-12-23T06:42:04.618Z,5.15
2018-12-23T06:47:59.606Z,7.53
2018-12-23T06:53:54.603Z,7.21
2018-12-23T06:59:49.612Z,10.22
2018-12-23T07:05:44.651Z,9.44
2018-12-23T07:11:39.624Z,13.43
2018-12-23T07:17:34.613Z,18.19
2018-12-23T07:23:29.633Z,16.8
2018-12-23T07:29:24.631Z,9.77
2018-12-23T07:35:19.629Z,15.63
2018-12-23T07:41:14.660Z,11.57
2018-12-23T07:47:09.661Z,7.12
2018-12-23T07:53:04.649Z,610.43
2018-12-23T07:58:59.628Z,387.79
2018-12-23T08:04:54.662Z,404.17
2018-12-23T08:10:49.670Z,258.55
2018-12-23T08:16:44.640Z,135.3
2018-12-23T08:22:39.696Z,49.89
2018-12-23T08:28:34.620Z,138.8
2018-12-23T08:34:29.635Z,49.24
2018-12-23T08:40:24.696Z,20.32
2018-12-23T08:46:19.619Z,15.79
2018-12-23T08:52:14.678Z,21.17
2018-12-23T08:58:09.646Z,21.28
2018-12-23T09:04:04.642Z,21.13
2018-12-23T09:09:59.634Z,25.94
2018-12-23T09:15:54.673Z,36.78
2018-12-23T09:21:49.661Z,32.09
2018-12-23T09:27:44.646Z,32.34
2018-12-23T09:33:39.676Z,32.25
2018-12-23T09:39:34.668Z,45.44
2018-12-23T09:45:29.662Z,37.27
2018-12-23T09:51:24.663Z,48.16
2018-12-23T09:57:19.686Z,40.5
2018-12-23T10:03:14.659Z,44.16
2018-12-23T10:09:09.655Z,32.03
2018-12-23T10:15:04.643Z,27.28
2018-12-23T10:20:59.678Z,37.72
2018-12-23T10:26:54.649Z,40.37
2018-12-23T10:32:49.742Z,36.24
2018-12-23T10:38:44.671Z,39.67
2018-12-23T10:44:39.656Z,32.87
2018-12-23T10:50:34.752Z,46.93
2018-12-23T10:56:29.730Z,42.59
2018-12-23T11:02:24.670Z,43.52
2018-12-23T11:08:26.821Z,46.44
2018-12-23T11:14:14.689Z,52.13
2018-12-23T11:20:09.692Z,39.9
2018-12-23T11:26:04.717Z,47.5
2018-12-23T11:31:59.718Z,38.09
2018-12-23T11:37:54.686Z,41.76
2018-12-23T11:43:49.781Z,40.69
2018-12-23T11:49:44.728Z,45.35
2018-12-23T11:55:39.680Z,40.6
2018-12-23T12:01:34.699Z,46.07
2018-12-23T12:07:29.680Z,49.9
2018-12-23T12:13:24.683Z,49.12
2018-12-23T12:19:19.755Z,50.24
2018-12-23T12:25:14.715Z,51.1
2018-12-23T12:31:09.718Z,67.07
2018-12-23T12:37:04.734Z,63.87
2018-12-23T12:42:59.695Z,42.11
2018-12-23T12:48:54.737Z,23.78
2018-12-23T12:54:49.721Z,15.48
2018-12-23T13:00:44.704Z,18.52
2018-12-23T13:06:39.771Z,40.74
2018-12-23T13:12:34.738Z,26.82
2018-12-23T13:18:29.729Z,32.13
2018-12-23T13:24:24.729Z,37.3
2018-12-23T13:30:19.733Z,36.06
2018-12-23T13:36:14.731Z,32.77
2018-12-23T13:42:09.726Z,31.12
2018-12-23T13:48:04.721Z,39.47
2018-12-23T13:53:59.724Z,31.02
2018-12-23T13:59:54.756Z,37.4
2018-12-23T14:05:49.787Z,31.66
2018-12-23T14:11:44.754Z,29.69
2018-12-23T14:17:39.746Z,28.75
2018-12-23T14:23:34.738Z,31.75
2018-12-23T14:29:29.773Z,43.39
2018-12-23T14:35:24.753Z,28.58
2018-12-23T14:41:19.849Z,32.03
2018-12-23T14:47:14.767Z,25.82
2018-12-23T14:53:09.743Z,36.66
2018-12-23T14:59:04.752Z,28.8
2018-12-23T15:04:59.781Z,29.49
2018-12-23T15:10:54.781Z,36.12
2018-12-23T15:16:49.762Z,31.25
2018-12-23T15:22:44.771Z,38.43
2018-12-23T15:28:39.764Z,42.13
2018-12-23T15:34:34.819Z,55.93
2018-12-23T15:40:29.795Z,72.76
2018-12-23T15:46:24.749Z,103.9
2018-12-23T15:52:19.808Z,137.4
2018-12-23T15:58:14.778Z,55.29
2018-12-23T16:04:09.774Z,47.3
2018-12-23T16:10:04.814Z,49.72
2018-12-23T16:15:59.782Z,33.62
2018-12-23T16:21:54.788Z,56.69
2018-12-23T16:27:49.784Z,48.94
2018-12-23T16:33:44.804Z,56.47
2018-12-23T16:39:39.768Z,80.66
2018-12-23T16:45:34.779Z,239.67
2018-12-23T16:51:29.785Z,78.85
2018-12-23T16:57:24.780Z,28.92
2018-12-23T17:03:19.833Z,40.34
2018-12-23T17:09:14.803Z,34.32
2018-12-23T17:15:09.801Z,48.89
2018-12-23T17:21:04.822Z,23.28
2018-12-23T17:26:59.874Z,33
2018-12-23T17:32:54.798Z,40.74
2018-12-23T17:38:49.824Z,63.79
2018-12-23T17:44:44.830Z,31.9
2018-12-23T17:50:39.840Z,34.87
2018-12-23T17:56:34.803Z,31.51
2018-12-23T18:02:29.817Z,27.76
2018-12-23T18:08:24.819Z,33.9
2018-12-23T18:14:19.833Z,58.07
2018-12-23T18:20:14.817Z,37.94
2018-12-23T18:26:09.814Z,21.71
2018-12-23T18:32:04.817Z,23.18
2018-12-23T18:37:59.888Z,46.83
2018-12-23T18:43:54.814Z,39.73
2018-12-23T18:49:49.811Z,34.53
2018-12-23T18:55:44.837Z,35.21
2018-12-23T19:01:39.808Z,29.71
2018-12-23T19:07:34.870Z,34.67
2018-12-23T19:13:29.847Z,36.44
2018-12-23T19:19:24.848Z,47.87
2018-12-23T19:25:19.867Z,24.25
2018-12-23T19:31:14.869Z,38.54
2018-12-23T19:37:09.815Z,23.84
2018-12-23T19:43:04.879Z,23.61
2018-12-23T19:49:00.385Z,40.1
2018-12-23T19:54:54.841Z,28.53
2018-12-23T20:00:49.848Z,24.24
2018-12-23T20:06:44.844Z,28.32
2018-12-23T20:12:41.368Z,32.47
2018-12-23T20:18:34.850Z,27.53
2018-12-23T20:24:29.838Z,23.42
2018-12-23T20:30:24.851Z,24.18
2018-12-23T20:36:19.855Z,35.2
2018-12-23T20:42:14.885Z,40.83
2018-12-23T20:48:09.879Z,40.81
2018-12-23T20:54:04.869Z,24.55
2018-12-23T20:59:59.860Z,33.06
2018-12-23T21:05:54.853Z,56.27
2018-12-23T21:11:49.856Z,40.59
2018-12-23T21:17:44.843Z,36.96
2018-12-23T21:23:39.863Z,27.49
2018-12-23T21:29:34.856Z,28.91
2018-12-23T21:35:29.890Z,34.45
2018-12-23T21:41:24.856Z,24.1
2018-12-23T21:47:19.854Z,29.07
2018-12-23T21:53:14.855Z,34.86
2018-12-23T21:59:09.856Z,31.5
2018-12-23T22:05:04.857Z,31.19
2018-12-23T22:10:59.864Z,35.52
2018-12-23T22:16:54.871Z,27.19
2018-12-23T22:22:49.862Z,27.87
2018-12-23T22:28:44.882Z,27.03
2018-12-23T22:34:39.880Z,24.56
2018-12-23T22:40:34.866Z,27.87
2018-12-23T22:46:29.912Z,25.68
2018-12-23T22:52:24.876Z,20.88
2018-12-23T22:58:19.892Z,28.76
2018-12-23T23:04:14.970Z,30.88
2018-12-23T23:10:09.956Z,26.78
2018-12-23T23:16:04.887Z,19.49
2018-12-23T23:21:59.940Z,17.84
2018-12-23T23:27:54.913Z,21.66
2018-12-23T23:33:49.873Z,25.84
2018-12-23T23:39:44.906Z,19.88
2018-12-23T23:45:39.942Z,16.34
2018-12-23T23:51:34.922Z,26.08
2018-12-23T23:57:29.918Z,37.18
